PWSweather.com
Personal Weather Stations
Station Observations

NjegusiYU

Lat: 42.43746, Lon: 18.822765

Elevation: 856

Station Type: Davis Vantage Vue

http://pljusak.com/njegusi/index.html

Latest ConditionsUpdated 10:00:00 AM GMT+01:01 Friday, Feb 22, 2019
Currently Today's Max Today's Min Today's Average
Temperature 38.7°F3.7°C 38.7°F3.7°C 23.1°F-4.9°C 27.8°F-2.3°C
Dew Point 36.3°F2.4°C 36.3°F2.4°C 21.9°F-5.6°C 26.9°F-2.8°C
Winds Calm Calm 1.0 mph -1.6 kmh - - 0.0 mph 0.0 kmh
Wind Gusts 1.0 mph1.6 kmh 4.0 mph6.4 kmh - -
Humidity 91% 97% 91% 96%
Pressure 27.23 in922.1 mb 27.34 in925.8 mb 27.23 in922.1 mb -
Precipitation - 0.01 in0.3 mm - -
Hour Temp Dew Point Humidity Winds Wind Gusts Pressure Precip Precip Rate Daily Precip Total
10:00 AM 38.7°F3.7°C 36.3°F2.4°C 91% Calm Calm 1.0 mph1.6 kmh 27.23 in922.1 mb 0.01 in0.3 mm 0.01 in0.3 mm 0.01 in0.3 mm
09:50 AM 37.9°F3.3°C 36.1°F2.3°C 93% Calm Calm 1.0 mph1.6 kmh 27.23 in922.1 mb 0.00 in0.0 mm 0.00 in0.0 mm 0.00 in0.0 mm
09:40 AM 37.3°F2.9°C 36.0°F2.2°C 95% Calm Calm 1.0 mph1.6 kmh 27.23 in922.1 mb 0.00 in0.0 mm 0.00 in0.0 mm 0.00 in0.0 mm
09:30 AM 36.7°F2.6°C 35.4°F1.9°C 95% Calm Calm 1.0 mph1.6 kmh 27.23 in922.1 mb 0.00 in0.0 mm 0.00 in0.0 mm 0.00 in0.0 mm
09:20 AM 36.4°F2.4°C 35.1°F1.7°C 95% Calm Calm -- 27.25 in922.8 mb 0.00 in0.0 mm 0.00 in0.0 mm 0.00 in0.0 mm
09:10 AM 36.1°F2.3°C 34.8°F1.6°C 95% Calm Calm -- 27.25 in922.8 mb 0.00 in0.0 mm 0.00 in0.0 mm 0.00 in0.0 mm
09:00 AM 35.7°F2.1°C 34.4°F1.3°C 95% Calm Calm -- 27.25 in922.8 mb 0.00 in0.0 mm 0.00 in0.0 mm 0.00 in0.0 mm
08:50 AM 35.1°F1.7°C 34.1°F1.2°C 96% Calm Calm 1.0 mph1.6 kmh 27.25 in922.8 mb 0.00 in0.0 mm 0.00 in0.0 mm 0.00 in0.0 mm
08:40 AM 34.0°F1.1°C 33.0°F0.6°C 96% Calm Calm 1.0 mph1.6 kmh 27.25 in922.8 mb 0.00 in0.0 mm 0.00 in0.0 mm 0.00 in0.0 mm
08:30 AM 33.5°F0.8°C 32.7°F0.4°C 97% Calm Calm 2.0 mph3.2 kmh 27.25 in922.8 mb 0.00 in0.0 mm 0.00 in0.0 mm 0.00 in0.0 mm
08:20 AM 32.5°F0.3°C 31.7°F-0.2°C 97% Calm Calm 1.0 mph1.6 kmh 27.26 in923.1 mb 0.00 in0.0 mm 0.00 in0.0 mm 0.00 in0.0 mm
08:10 AM 32.0°F0.0°C 31.2°F-0.4°C 97% 1.0 mph E1.6 kmh E 4.0 mph6.4 kmh 27.26 in923.1 mb 0.00 in0.0 mm 0.00 in0.0 mm 0.00 in0.0 mm
08:00 AM 31.2°F-0.4°C 30.4°F-0.9°C 97% Calm Calm 2.0 mph3.2 kmh 27.26 in923.1 mb 0.00 in0.0 mm 0.00 in0.0 mm 0.00 in0.0 mm
07:50 AM 30.9°F-0.6°C 30.2°F-1.0°C 97% Calm Calm -- 27.26 in923.1 mb 0.00 in0.0 mm 0.00 in0.0 mm 0.00 in0.0 mm
07:40 AM 30.6°F-0.8°C 29.9°F-1.2°C 97% Calm Calm -- 27.26 in923.1 mb 0.00 in0.0 mm 0.00 in0.0 mm 0.00 in0.0 mm
07:30 AM 30.3°F-0.9°C 29.6°F-1.3°C 97% Calm Calm -- 27.25 in922.8 mb 0.00 in0.0 mm 0.00 in0.0 mm 0.00 in0.0 mm
07:20 AM 29.9°F-1.2°C 29.2°F-1.6°C 97% Calm Calm -- 27.25 in922.8 mb 0.00 in0.0 mm 0.00 in0.0 mm 0.00 in0.0 mm
07:10 AM 29.5°F-1.4°C 28.8°F-1.8°C 97% Calm Calm -- 27.25 in922.8 mb 0.00 in0.0 mm 0.00 in0.0 mm 0.00 in0.0 mm
07:00 AM 29.3°F-1.5°C 28.6°F-1.9°C 97% Calm Calm -- 27.25 in922.8 mb 0.00 in0.0 mm 0.00 in0.0 mm 0.00 in0.0 mm
06:50 AM 29.0°F-1.7°C 28.3°F-2.1°C 97% Calm Calm -- 27.25 in922.8 mb 0.00 in0.0 mm 0.00 in0.0 mm 0.00 in0.0 mm
06:40 AM 28.9°F-1.7°C 28.2°F-2.1°C 97% Calm Calm -- 27.24 in922.5 mb 0.00 in0.0 mm 0.00 in0.0 mm 0.00 in0.0 mm
06:30 AM 28.6°F-1.9°C 27.9°F-2.3°C 97% Calm Calm -- 27.24 in922.5 mb 0.00 in0.0 mm 0.00 in0.0 mm 0.00 in0.0 mm
06:20 AM 28.2°F-2.1°C 27.5°F-2.5°C 97% Calm Calm -- 27.24 in922.5 mb 0.00 in0.0 mm 0.00 in0.0 mm 0.00 in0.0 mm
06:10 AM 28.2°F-2.1°C 27.5°F-2.5°C 97% Calm Calm -- 27.24 in922.5 mb 0.00 in0.0 mm 0.00 in0.0 mm 0.00 in0.0 mm
06:00 AM 28.1°F-2.2°C 27.4°F-2.6°C 97% Calm Calm -- 27.24 in922.5 mb 0.00 in0.0 mm 0.00 in0.0 mm 0.00 in0.0 mm
05:50 AM 27.8°F-2.3°C 27.1°F-2.7°C 97% Calm Calm -- 27.24 in922.5 mb 0.00 in0.0 mm 0.00 in0.0 mm 0.00 in0.0 mm
05:40 AM 27.2°F-2.7°C 26.5°F-3.1°C 97% Calm Calm -- 27.25 in922.8 mb 0.00 in0.0 mm 0.00 in0.0 mm 0.00 in0.0 mm
05:30 AM 26.9°F-2.8°C 26.2°F-3.2°C 97% Calm Calm -- 27.25 in922.8 mb 0.00 in0.0 mm 0.00 in0.0 mm 0.00 in0.0 mm
05:20 AM 26.6°F-3.0°C 25.9°F-3.4°C 97% Calm Calm -- 27.25 in922.8 mb 0.00 in0.0 mm 0.00 in0.0 mm 0.00 in0.0 mm
05:10 AM 26.3°F-3.2°C 25.6°F-3.6°C 97% Calm Calm 1.0 mph1.6 kmh 27.25 in922.8 mb 0.00 in0.0 mm 0.00 in0.0 mm 0.00 in0.0 mm
05:00 AM 25.4°F-3.7°C 24.7°F-4.1°C 97% Calm Calm 1.0 mph1.6 kmh 27.26 in923.1 mb 0.00 in0.0 mm 0.00 in0.0 mm 0.00 in0.0 mm
04:50 AM 24.5°F-4.2°C 23.5°F-4.7°C 96% Calm Calm 1.0 mph1.6 kmh 27.26 in923.1 mb 0.00 in0.0 mm 0.00 in0.0 mm 0.00 in0.0 mm
04:40 AM 23.6°F-4.7°C 22.6°F-5.2°C 96% Calm Calm -- 27.26 in923.1 mb 0.00 in0.0 mm 0.00 in0.0 mm 0.00 in0.0 mm
04:30 AM 24.0°F-4.4°C 23.0°F-5.0°C 96% Calm Calm -- 27.26 in923.1 mb 0.00 in0.0 mm 0.00 in0.0 mm 0.00 in0.0 mm
04:20 AM 24.2°F-4.3°C 23.5°F-4.7°C 97% Calm Calm -- 27.27 in923.5 mb 0.00 in0.0 mm 0.00 in0.0 mm 0.00 in0.0 mm
04:10 AM 23.8°F-4.6°C 22.8°F-5.1°C 96% Calm Calm -- 27.27 in923.5 mb 0.00 in0.0 mm 0.00 in0.0 mm 0.00 in0.0 mm
04:00 AM 23.2°F-4.9°C 22.2°F-5.4°C 96% Calm Calm -- 27.27 in923.5 mb 0.00 in0.0 mm 0.00 in0.0 mm 0.00 in0.0 mm
03:50 AM 23.4°F-4.8°C 22.4°F-5.3°C 96% Calm Calm -- 27.27 in923.5 mb 0.00 in0.0 mm 0.00 in0.0 mm 0.00 in0.0 mm
03:40 AM 23.7°F-4.6°C 22.7°F-5.2°C 96% Calm Calm 1.0 mph1.6 kmh 27.27 in923.5 mb 0.00 in0.0 mm 0.00 in0.0 mm 0.00 in0.0 mm
03:30 AM 24.2°F-4.3°C 23.5°F-4.7°C 97% Calm Calm -- 27.28 in923.8 mb 0.00 in0.0 mm 0.00 in0.0 mm 0.00 in0.0 mm
03:20 AM 23.8°F-4.6°C 22.8°F-5.1°C 96% Calm Calm 1.0 mph1.6 kmh 27.28 in923.8 mb 0.00 in0.0 mm 0.00 in0.0 mm 0.00 in0.0 mm
03:10 AM 23.1°F-4.9°C 22.1°F-5.5°C 96% Calm Calm 1.0 mph1.6 kmh 27.28 in923.8 mb 0.00 in0.0 mm 0.00 in0.0 mm 0.00 in0.0 mm
03:00 AM 23.3°F-4.8°C 22.3°F-5.4°C 96% Calm Calm -- 27.28 in923.8 mb 0.00 in0.0 mm 0.00 in0.0 mm 0.00 in0.0 mm
02:50 AM 23.9°F-4.5°C 23.2°F-4.9°C 97% Calm Calm 1.0 mph1.6 kmh 27.28 in923.8 mb 0.00 in0.0 mm 0.00 in0.0 mm 0.00 in0.0 mm
02:40 AM 23.6°F-4.7°C 22.6°F-5.2°C 96% Calm Calm 1.0 mph1.6 kmh 27.29 in924.1 mb 0.00 in0.0 mm 0.00 in0.0 mm 0.00 in0.0 mm
02:30 AM 23.1°F-4.9°C 21.9°F-5.6°C 95% Calm Calm 1.0 mph1.6 kmh 27.29 in924.1 mb 0.00 in0.0 mm 0.00 in0.0 mm 0.00 in0.0 mm
02:20 AM 24.0°F-4.4°C 23.0°F-5.0°C 96% Calm Calm -- 27.29 in924.1 mb 0.00 in0.0 mm 0.00 in0.0 mm 0.00 in0.0 mm
02:10 AM 24.0°F-4.4°C 23.0°F-5.0°C 96% Calm Calm -- 27.29 in924.1 mb 0.00 in0.0 mm 0.00 in0.0 mm 0.00 in0.0 mm
02:00 AM 24.2°F-4.3°C 23.2°F-4.9°C 96% Calm Calm -- 27.30 in924.5 mb 0.00 in0.0 mm 0.00 in0.0 mm 0.00 in0.0 mm
01:50 AM 24.2°F-4.3°C 23.2°F-4.9°C 96% Calm Calm -- 27.30 in924.5 mb 0.00 in0.0 mm 0.00 in0.0 mm 0.00 in0.0 mm
01:40 AM 24.3°F-4.3°C 23.3°F-4.8°C 96% Calm Calm 1.0 mph1.6 kmh 27.30 in924.5 mb 0.00 in0.0 mm 0.00 in0.0 mm 0.00 in0.0 mm
01:30 AM 25.0°F-3.9°C 24.3°F-4.3°C 97% Calm Calm 1.0 mph1.6 kmh 27.30 in924.5 mb 0.00 in0.0 mm 0.00 in0.0 mm 0.00 in0.0 mm
01:20 AM 24.2°F-4.3°C 23.2°F-4.9°C 96% Calm Calm -- 27.31 in924.8 mb 0.00 in0.0 mm 0.00 in0.0 mm 0.00 in0.0 mm
01:10 AM 24.6°F-4.1°C 23.6°F-4.7°C 96% Calm Calm -- 27.31 in924.8 mb 0.00 in0.0 mm 0.00 in0.0 mm 0.00 in0.0 mm
01:00 AM 25.5°F-3.6°C 24.8°F-4.0°C 97% Calm Calm 1.0 mph1.6 kmh 27.31 in924.8 mb 0.00 in0.0 mm 0.00 in0.0 mm 0.00 in0.0 mm
12:50 AM 25.4°F-3.7°C 24.7°F-4.1°C 97% Calm Calm -- 27.32 in925.2 mb 0.00 in0.0 mm 0.00 in0.0 mm 0.00 in0.0 mm
12:40 AM 25.0°F-3.9°C 24.0°F-4.4°C 96% Calm Calm -- 27.32 in925.2 mb 0.00 in0.0 mm 0.00 in0.0 mm 0.00 in0.0 mm
12:30 AM 24.9°F-3.9°C 23.9°F-4.5°C 96% Calm Calm 1.0 mph1.6 kmh 27.32 in925.2 mb 0.00 in0.0 mm 0.00 in0.0 mm 0.00 in0.0 mm
12:20 AM 25.4°F-3.7°C 24.4°F-4.2°C 96% Calm Calm -- 27.33 in925.5 mb 0.00 in0.0 mm 0.00 in0.0 mm 0.00 in0.0 mm
12:10 AM 25.8°F-3.4°C 24.8°F-4.0°C 96% Calm Calm 1.0 mph1.6 kmh 27.34 in925.8 mb 0.00 in0.0 mm 0.00 in0.0 mm 0.00 in0.0 mm
12:00 AM 26.1°F-3.3°C 25.4°F-3.7°C 97% Calm Calm -- 27.34 in925.8 mb 0.00 in0.0 mm 0.00 in0.0 mm 0.00 in0.0 mm